KLITKMBT

Guest
Details From KLIT - Little Rock Adams Field
To KMBT - Murfreesboro Muni
Flight Number -
Tags Generated
Created
Modified
Stats Distance 296 nm / 548 km
Max Altitude 0 ft / 0 m
Waypoints 3
Social Downloads 2
Likes 0
Share VATSIM

Download

Looking for another format? Having issues loading an existing format? Contact us
Advertisement - Login to hide

Notes

Generated

Route

KLIT JOVNA KMBT

ID Type Via Altitude Latitude Longitude Leg Dist Tot Dist Heading (true) Name
O KLIT APT - 0 ft / 0 m 34.73677˚ -92.23819˚ - 0 nm - -
JOVNA FIX - 0 ft / 0 m 35.74956˚ -86.75200˚ 275 nm 275 nm 76° / 79° -
O KMBT APT - 0 ft / 0 m 35.88283˚ -86.37725˚ 19 nm 295 nm 66° / 66° MURFREESBORO MUNI

Altitude Profile

Advertisement - Login to hide

Weather


0- 5 10 15 20 25 30 35+ Temperature / ° C

Clouds and Precipitation
Forecast for 2018-05-25 00:00 UTC. Updated 44 minutes ago

Ground ~20,000 ft ~40,000 ft Winds

KLIT

Details ICAO KLIT (LIT)
Name Little Rock Adams Field
Region United States
Timezone America/Chicago (UTC-5.0)
Stats Elevation 262 ft / 80 m (AMSL)
Location 34.729415° -92.225482°
Runways 3
Magnetic Variation 0.199° E

METAR

KLIT 242353Z 11004KT 10SM SCT050 BKN200 28/21 A3000 RMK AO2 SLP158 T02830211 10311 20278 56006

Decode

TAF

TAF KLIT 242340Z 2500/2524 VRB02KT P6SM VCTS SCT040CB BKN250 FM250200 00000KT P6SM BKN250 TEMPO 2510/2513 4SM BR BKN020 FM251600 25006KT P6SM VCTS SCT050CB BKN100

Decode

Departure Runways

ID Width Length Bearing (true) Bearing (mag) Surface Threshold Offset Overrun Length
04L 150 ft / 46 m 8,274 ft / 2,522 m 46.37° 46.17° Concrete 297 ft / 91 m 0 ft / 0 m
04R 150 ft / 46 m 7,201 ft / 2,195 m 46.39° 46.19° Concrete 0 ft / 0 m 0 ft / 0 m
18 150 ft / 46 m 5,137 ft / 1,566 m 181.50° 181.30° Concrete 100 ft / 30 m 0 ft / 0 m
22L 150 ft / 46 m 7,201 ft / 2,195 m 226.40° 226.20° Concrete 0 ft / 0 m 0 ft / 0 m
22R 150 ft / 46 m 8,274 ft / 2,522 m 226.38° 226.18° Concrete 0 ft / 0 m 0 ft / 0 m
36 150 ft / 46 m 5,137 ft / 1,566 m 1.50° 1.30° Concrete 100 ft / 30 m 0 ft / 0 m

KMBT

Details ICAO KMBT
Name MURFREESBORO MUNI
Region United States
Timezone America/Chicago (UTC-5.0)
Stats Elevation 615 ft / 187 m (AMSL)
Location 35.877485° -86.377532°
Runways 1
Magnetic Variation 4.061° W

METAR

KMBT 242355Z AUTO 01006KT 10SM CLR 30/16 A3001 RMK A01

Decode

TAF

Not found

Destination Runways

ID Width Length Bearing (true) Bearing (mag) Surface Threshold Offset Overrun Length
18 100 ft / 30 m 3,907 ft / 1,191 m 182.45° 186.51° Asphalt 0 ft / 0 m 0 ft / 0 m
36 100 ft / 30 m 3,907 ft / 1,191 m 2.45° 6.51° Asphalt 0 ft / 0 m 0 ft / 0 m